Time;durP1;ratioP1;P1;durP2;ratioP2;P2;SDS_P1;SDS_P2;PMS_P1;PMS_P2;Temp;Humidity;BMP_temperature;BMP_pressure;BME280_temperature;BME280_humidity;BME280_pressure;Samples;Min_cycle;Max_cycle;Signal;HPM_P1;HPM_P2
2023/01/05 00:01:43;;;;;;;7.15;2.80;;;7.70;99.90;;;;;;4406306;28;653646;-72
2023/01/05 00:04:30;;;;;;;3.97;2.30;;;7.70;99.90;;;;;;4408453;28;653579;-75
2023/01/05 00:07:17;;;;;;;4.57;3.07;;;7.70;99.90;;;;;;4406542;28;654829;-72
2023/01/05 00:22:29;;;;;;;3.10;1.80;;;7.60;99.90;;;;;;4397365;28;653482;-74
2023/01/05 00:22:45;;;;;;;4.47;2.70;;;7.70;99.90;;;;;;4270339;28;653295;-73
2023/01/05 00:25:33;;;;;;;4.37;2.53;;;7.70;99.90;;;;;;4297644;28;653990;-73
2023/01/05 00:28:20;;;;;;;3.00;2.00;;;7.80;99.90;;;;;;4368669;28;653662;-72
2023/01/05 00:31:08;;;;;;;4.00;2.33;;;7.80;99.90;;;;;;4417835;28;653280;-73
2023/01/05 00:33:55;;;;;;;6.60;2.40;;;7.80;99.90;;;;;;4399290;28;653979;-75
2023/01/05 00:36:44;;;;;;;3.67;2.37;;;7.90;99.90;;;;;;4408619;28;654519;-72
2023/01/05 00:39:31;;;;;;;2.47;1.90;;;7.90;99.90;;;;;;4390687;28;654047;-74
2023/01/05 00:42:18;;;;;;;2.73;2.00;;;7.90;99.90;;;;;;4416116;28;653652;-73
2023/01/05 00:45:06;;;;;;;5.10;2.40;;;8.00;99.90;;;;;;4392550;28;653479;-72
2023/01/05 00:47:54;;;;;;;3.37;2.13;;;8.00;99.90;;;;;;4412453;28;653451;-75
2023/01/05 00:50:41;;;;;;;3.47;2.20;;;8.10;99.90;;;;;;4390584;28;653909;-75
2023/01/05 00:53:30;;;;;;;3.63;2.23;;;8.00;99.90;;;;;;4428979;28;653831;-73
2023/01/05 00:56:17;;;;;;;3.87;2.00;;;8.00;99.90;;;;;;4391099;28;654110;-73
2023/01/05 00:59:04;;;;;;;2.40;2.10;;;8.00;99.90;;;;;;4418139;28;653428;-73
2023/01/05 01:01:54;;;;;;;3.83;2.40;;;8.00;99.90;;;;;;4392986;28;653827;-75
2023/01/05 01:04:41;;;;;;;3.30;2.30;;;8.00;99.90;;;;;;4392349;28;654038;-75
2023/01/05 01:07:28;;;;;;;3.70;2.30;;;8.00;99.90;;;;;;4414917;28;654545;-75
2023/01/05 01:10:17;;;;;;;3.43;1.93;;;8.00;99.90;;;;;;4394900;28;653237;-72
2023/01/05 01:13:04;;;;;;;2.63;2.40;;;8.00;99.90;;;;;;4414997;28;653761;-75
2023/01/05 01:15:52;;;;;;;4.90;2.43;;;8.00;99.90;;;;;;4391140;28;653728;-72
2023/01/05 01:18:39;;;;;;;3.37;2.20;;;8.00;99.90;;;;;;4432374;28;653353;-72
2023/01/05 01:21:26;;;;;;;3.30;2.30;;;8.00;99.90;;;;;;4401420;28;652767;-73
2023/01/05 01:24:15;;;;;;;4.27;2.10;;;7.90;99.90;;;;;;4417407;28;654041;-72
2023/01/05 01:27:04;;;;;;;3.37;1.93;;;8.00;99.90;;;;;;4402618;28;654491;-75
2023/01/05 01:29:51;;;;;;;3.23;2.23;;;8.00;99.90;;;;;;4401508;28;654497;-76
2023/01/05 01:32:38;;;;;;;2.77;1.97;;;8.00;99.90;;;;;;4417460;28;654258;-75
2023/01/05 01:35:25;;;;;;;2.87;2.13;;;8.00;99.90;;;;;;4395512;28;653346;-76
2023/01/05 01:38:13;;;;;;;3.10;1.93;;;7.90;99.90;;;;;;4421815;28;654277;-77
2023/01/05 01:41:00;;;;;;;2.53;2.10;;;7.90;99.90;;;;;;4416647;28;654566;-76
2023/01/05 01:43:50;;;;;;;2.17;1.60;;;7.80;99.90;;;;;;4431273;28;653769;-76
2023/01/05 01:46:37;;;;;;;4.13;2.07;;;7.90;99.90;;;;;;4408595;28;653968;-75
2023/01/05 01:49:24;;;;;;;2.77;2.00;;;7.90;99.90;;;;;;4413084;28;653607;-74
2023/01/05 01:52:11;;;;;;;2.55;1.75;;;8.00;99.90;;;;;;4397981;28;653621;-73
2023/01/05 01:54:58;;;;;;;2.43;1.67;;;8.00;99.90;;;;;;4415178;28;654279;-74
2023/01/05 01:57:46;;;;;;;2.17;1.43;;;8.10;99.90;;;;;;4409556;28;653722;-73
2023/01/05 02:00:34;;;;;;;1.20;1.10;;;8.20;99.90;;;;;;4421391;28;654736;-75
2023/01/05 02:03:21;;;;;;;2.63;1.70;;;8.20;99.90;;;;;;4407433;28;653621;-74
2023/01/05 02:06:09;;;;;;;3.00;1.73;;;8.20;99.90;;;;;;4412815;28;653623;-75
2023/01/05 02:08:56;;;;;;;2.63;1.67;;;8.20;99.90;;;;;;4394520;28;653714;-75
2023/01/05 02:11:45;;;;;;;1.77;1.40;;;8.10;99.90;;;;;;4409430;28;654959;-74
2023/01/05 02:14:36;;;;;;;1.50;1.30;;;8.20;99.90;;;;;;4387757;28;653999;-75
2023/01/05 02:17:28;;;;;;;2.57;1.17;;;8.30;99.90;;;;;;4407802;28;654570;-78
2023/01/05 02:20:39;;;;;;;1.90;1.60;;;8.30;99.90;;;;;;4396847;28;653298;-75
2023/01/05 02:23:53;;;;;;;1.20;1.07;;;8.30;99.90;;;;;;4364735;28;653674;-77
2023/01/05 02:27:17;;;;;;;2.50;1.60;;;8.30;99.90;;;;;;4377151;28;654243;-74
2023/01/05 02:30:38;;;;;;;1.47;1.17;;;8.40;99.90;;;;;;4394612;28;654258;-74
2023/01/05 02:33:31;;;;;;;1.93;1.43;;;8.40;99.90;;;;;;4359393;28;653449;-74
2023/01/05 02:36:20;;;;;;;2.00;1.43;;;8.40;99.90;;;;;;4395530;28;654833;-74
2023/01/05 02:39:13;;;;;;;3.43;1.70;;;8.50;99.90;;;;;;4393243;28;654797;-73
2023/01/05 02:42:03;;;;;;;1.90;1.10;;;8.60;99.90;;;;;;4420460;28;654669;-73
2023/01/05 02:44:50;;;;;;;3.45;1.50;;;8.70;99.90;;;;;;4416000;28;653370;-74
2023/01/05 02:47:39;;;;;;;2.53;1.30;;;8.70;99.90;;;;;;4411523;28;654891;-77
2023/01/05 02:50:29;;;;;;;2.60;1.43;;;8.80;99.90;;;;;;4409680;28;653964;-74
2023/01/05 02:53:19;;;;;;;2.17;1.50;;;8.80;99.90;;;;;;4415988;28;654150;-73
2023/01/05 02:56:09;;;;;;;2.03;1.40;;;8.70;99.90;;;;;;4407394;28;654268;-74
2023/01/05 02:58:58;;;;;;;1.37;1.13;;;8.70;99.90;;;;;;4395476;28;653473;-73
2023/01/05 03:01:47;;;;;;;2.03;1.25;;;8.70;99.90;;;;;;4393967;28;653870;-73
2023/01/05 03:04:38;;;;;;;1.47;1.10;;;8.70;99.90;;;;;;4430632;28;653477;-73
2023/01/05 03:07:29;;;;;;;2.13;1.47;;;8.80;99.90;;;;;;4382230;28;654129;-73
2023/01/05 03:16:27;;;;;;;2.47;1.50;;;8.80;99.90;;;;;;4370282;28;654142;-74
2023/01/05 03:37:59;;;;;;;2.70;1.93;;;8.40;99.90;;;;;;4370335;28;654282;-74
2023/01/05 03:40:49;;;;;;;2.77;1.90;;;8.40;99.90;;;;;;4408180;28;653619;-74
2023/01/05 03:43:36;;;;;;;2.10;1.70;;;8.40;99.90;;;;;;4391943;28;653856;-74
2023/01/05 03:46:23;;;;;;;2.13;1.67;;;8.30;99.90;;;;;;4429589;28;654449;-74
2023/01/05 03:49:10;;;;;;;2.13;1.57;;;8.30;99.90;;;;;;4393865;28;653873;-74
2023/01/05 03:51:58;;;;;;;2.80;1.77;;;8.30;99.90;;;;;;4417290;28;655276;-74
2023/01/05 03:54:45;;;;;;;1.20;0.90;;;8.30;99.90;;;;;;4420626;28;653174;-74
2023/01/05 03:57:34;;;;;;;2.43;1.20;;;8.40;99.90;;;;;;4429652;28;654295;-74
2023/01/05 04:00:21;;;;;;;1.77;1.20;;;8.30;99.90;;;;;;4405688;28;653370;-74
2023/01/05 04:03:09;;;;;;;3.57;1.50;;;8.40;99.90;;;;;;4427469;28;655570;-78
2023/01/05 04:05:56;;;;;;;1.73;1.30;;;8.40;99.90;;;;;;4391544;28;653382;-77
2023/01/05 04:08:43;;;;;;;1.83;1.00;;;8.40;99.90;;;;;;4419302;28;654677;-74
2023/01/05 04:11:31;;;;;;;1.73;1.07;;;8.30;99.90;;;;;;4407152;28;653539;-75
2023/01/05 04:14:19;;;;;;;4.70;1.30;;;8.30;99.90;;;;;;4399805;28;654870;-74
2023/01/05 04:17:06;;;;;;;1.77;1.20;;;8.20;99.90;;;;;;4385939;28;653325;-73
2023/01/05 04:19:54;;;;;;;4.90;1.50;;;8.30;99.90;;;;;;4415129;28;654113;-74
2023/01/05 04:22:41;;;;;;;2.93;1.77;;;8.30;99.90;;;;;;4396458;28;653447;-74
2023/01/05 04:25:29;;;;;;;5.47;2.00;;;8.20;99.90;;;;;;4410871;28;654124;-74
2023/01/05 04:28:16;;;;;;;5.00;1.80;;;8.20;99.90;;;;;;4380325;28;653070;-73
2023/01/05 04:31:05;;;;;;;2.83;1.83;;;8.20;99.90;;;;;;4410065;28;653790;-74
2023/01/05 04:33:52;;;;;;;3.70;2.00;;;8.20;99.90;;;;;;4391252;28;653917;-74
2023/01/05 04:36:40;;;;;;;2.60;2.10;;;8.10;99.90;;;;;;4423090;28;653227;-74
2023/01/05 04:39:28;;;;;;;3.47;2.17;;;8.10;99.90;;;;;;4413238;28;654782;-74
2023/01/05 04:42:15;;;;;;;4.60;2.40;;;8.00;99.90;;;;;;4412023;28;653604;-74
2023/01/05 04:45:03;;;;;;;2.53;1.80;;;8.00;99.90;;;;;;4433907;28;654758;-74
2023/01/05 04:47:52;;;;;;;3.97;1.90;;;8.00;99.90;;;;;;4416051;28;653230;-74
2023/01/05 04:50:40;;;;;;;3.27;1.70;;;7.90;99.90;;;;;;4415928;28;653313;-74
2023/01/05 04:53:27;;;;;;;6.50;1.70;;;7.90;99.90;;;;;;4424860;28;654684;-75
2023/01/05 04:56:15;;;;;;;2.63;1.63;;;7.90;99.90;;;;;;4408937;28;653755;-74
2023/01/05 04:59:02;;;;;;;5.27;1.80;;;7.90;99.90;;;;;;4418588;28;653815;-74
2023/01/05 05:01:50;;;;;;;2.50;1.50;;;7.90;99.90;;;;;;4423250;28;653720;-74
2023/01/05 05:04:39;;;;;;;2.50;1.83;;;7.90;99.90;;;;;;4410998;28;654757;-75
2023/01/05 05:07:26;;;;;;;4.27;1.90;;;7.90;99.90;;;;;;4392959;28;654069;-74
2023/01/05 05:10:16;;;;;;;2.83;1.80;;;7.90;99.90;;;;;;4406541;28;654457;-74
2023/01/05 05:13:03;;;;;;;2.93;1.70;;;7.90;99.90;;;;;;4393884;28;654162;-80
2023/01/05 05:15:51;;;;;;;2.00;1.50;;;8.00;99.90;;;;;;4406509;28;654605;-74
2023/01/05 05:18:38;;;;;;;2.57;1.53;;;8.00;99.90;;;;;;4429234;28;654385;-74
2023/01/05 05:21:27;;;;;;;2.80;1.97;;;7.90;99.90;;;;;;4399694;28;653788;-74
2023/01/05 05:24:14;;;;;;;1.63;1.53;;;7.90;99.90;;;;;;4435706;28;653120;-74
2023/01/05 05:27:01;;;;;;;4.10;1.93;;;7.90;99.90;;;;;;4418008;28;653403;-73
2023/01/05 05:29:48;;;;;;;2.93;2.10;;;7.80;99.90;;;;;;4415097;28;653934;-73
2023/01/05 05:32:35;;;;;;;2.37;1.43;;;7.90;99.90;;;;;;4412879;28;653236;-74
2023/01/05 05:35:23;;;;;;;2.93;1.90;;;7.90;99.90;;;;;;4426543;28;654849;-72
2023/01/05 05:38:12;;;;;;;3.13;1.70;;;7.90;99.90;;;;;;4420621;28;653623;-74
2023/01/05 05:40:59;;;;;;;2.77;1.60;;;7.80;99.90;;;;;;4429367;28;654671;-73
2023/01/05 05:43:46;;;;;;;2.00;1.40;;;7.90;99.90;;;;;;4411966;28;653698;-73
2023/01/05 05:46:33;;;;;;;2.50;1.77;;;7.80;99.90;;;;;;4415673;28;654437;-74
2023/01/05 05:49:20;;;;;;;2.03;1.60;;;7.80;99.90;;;;;;4396290;28;654177;-72
2023/01/05 05:52:08;;;;;;;3.40;2.00;;;7.80;99.90;;;;;;4420042;28;653656;-74
2023/01/05 05:54:57;;;;;;;3.00;2.10;;;7.80;99.90;;;;;;4393912;28;653438;-74
2023/01/05 05:57:44;;;;;;;4.00;3.00;;;7.80;99.90;;;;;;4430003;28;652922;-72
2023/01/05 06:00:31;;;;;;;4.73;3.70;;;7.80;99.90;;;;;;4399839;28;653635;-74
2023/01/05 06:03:18;;;;;;;3.72;3.15;;;7.70;99.90;;;;;;4412694;28;655242;-74
2023/01/05 06:06:06;;;;;;;10.77;4.20;;;7.80;99.90;;;;;;4399114;28;653395;-74
2023/01/05 06:08:53;;;;;;;5.40;3.33;;;7.70;99.90;;;;;;4414353;28;655644;-74
2023/01/05 06:11:42;;;;;;;4.03;3.27;;;7.70;99.90;;;;;;4395092;28;654462;-74
2023/01/05 06:14:29;;;;;;;7.27;3.50;;;7.70;99.90;;;;;;4408968;28;653887;-73
2023/01/05 06:17:16;;;;;;;4.83;3.27;;;7.70;99.90;;;;;;4284238;28;653458;-73
2023/01/05 06:20:05;;;;;;;3.03;2.30;;;7.70;99.90;;;;;;4292129;28;654028;-73
2023/01/05 06:22:52;;;;;;;4.50;2.73;;;7.70;99.90;;;;;;4294787;28;653398;-74
2023/01/05 06:25:39;;;;;;;4.10;2.33;;;7.60;99.90;;;;;;4406770;28;653337;-74
2023/01/05 06:28:28;;;;;;;4.57;2.73;;;7.60;99.90;;;;;;4390256;28;654425;-73
2023/01/05 06:31:15;;;;;;;4.23;2.60;;;7.60;99.90;;;;;;4391830;28;653326;-73
2023/01/05 06:34:03;;;;;;;4.33;2.23;;;7.60;99.90;;;;;;4413272;28;654515;-73
2023/01/05 06:36:50;;;;;;;3.20;1.70;;;7.60;99.90;;;;;;4410394;28;653611;-73
2023/01/05 06:39:37;;;;;;;3.03;1.70;;;7.70;99.90;;;;;;4427036;28;654659;-74
2023/01/05 06:42:25;;;;;;;2.77;1.80;;;7.60;99.90;;;;;;4422140;28;653748;-73
2023/01/05 06:45:14;;;;;;;4.63;2.20;;;7.70;99.90;;;;;;4433007;28;654351;-74
2023/01/05 06:48:02;;;;;;;3.33;1.67;;;7.70;99.90;;;;;;4416641;28;653335;-74
2023/01/05 06:50:49;;;;;;;3.93;2.27;;;7.60;99.90;;;;;;4419726;28;654452;-74
2023/01/05 06:53:36;;;;;;;5.30;2.50;;;7.70;99.90;;;;;;4404219;28;653664;-75
2023/01/05 06:56:23;;;;;;;3.30;2.10;;;7.70;99.90;;;;;;4422633;28;653423;-73
2023/01/05 06:59:11;;;;;;;5.80;2.73;;;7.70;99.90;;;;;;4388636;28;653761;-72
2023/01/05 07:02:00;;;;;;;4.57;2.10;;;7.70;99.90;;;;;;4420103;28;653635;-73
2023/01/05 07:04:47;;;;;;;6.83;2.30;;;7.60;99.90;;;;;;4412619;28;655218;-72
2023/01/05 07:07:34;;;;;;;6.10;3.10;;;7.60;99.90;;;;;;4412582;28;653680;-75
2023/01/05 07:10:21;;;;;;;5.03;2.00;;;7.60;99.90;;;;;;4395198;28;653277;-70
2023/01/05 07:13:08;;;;;;;5.63;1.80;;;7.60;99.90;;;;;;4426874;28;654191;-72
2023/01/05 07:15:56;;;;;;;4.50;2.17;;;7.60;99.90;;;;;;4413977;28;655712;-71
2023/01/05 07:18:44;;;;;;;4.83;2.07;;;7.60;99.90;;;;;;4420374;28;654448;-74
2023/01/05 07:21:31;;;;;;;10.03;1.93;;;7.50;99.90;;;;;;4405895;28;653226;-73
2023/01/05 07:24:19;;;;;;;6.33;2.53;;;7.50;99.90;;;;;;4401939;28;655105;-74
2023/01/05 07:27:06;;;;;;;6.43;2.70;;;7.50;99.90;;;;;;4386404;28;654115;-74
2023/01/05 07:29:53;;;;;;;4.03;2.30;;;7.50;99.90;;;;;;4425483;28;654448;-73
2023/01/05 07:32:41;;;;;;;6.60;3.43;;;7.40;99.90;;;;;;4387706;28;653656;-74
2023/01/05 07:35:29;;;;;;;7.40;2.88;;;7.40;99.90;;;;;;4412093;28;653480;-73
2023/01/05 07:38:17;;;;;;;8.53;3.07;;;7.40;99.90;;;;;;4392590;28;653427;-73
2023/01/05 07:41:04;;;;;;;5.50;2.90;;;7.40;99.90;;;;;;4413801;28;653853;-72
2023/01/05 07:43:51;;;;;;;6.28;2.85;;;7.40;99.90;;;;;;4389516;28;654172;-73
2023/01/05 07:46:38;;;;;;;4.50;2.10;;;7.40;99.90;;;;;;4415753;28;653883;-73
2023/01/05 07:49:26;;;;;;;7.90;2.40;;;7.30;99.90;;;;;;4396767;28;653079;-73
2023/01/05 07:52:15;;;;;;;6.17;2.20;;;7.20;99.90;;;;;;4420335;28;654386;-74
2023/01/05 07:55:03;;;;;;;7.50;2.47;;;7.20;99.90;;;;;;4388114;28;654508;-73
2023/01/05 07:57:50;;;;;;;5.43;2.07;;;7.20;99.90;;;;;;4415731;28;653923;-72
2023/01/05 08:00:37;;;;;;;7.07;2.73;;;7.20;99.90;;;;;;4410507;28;655070;-73
2023/01/05 08:03:25;;;;;;;6.80;2.00;;;7.10;99.90;;;;;;4407142;28;653287;-73
2023/01/05 08:06:13;;;;;;;5.27;2.57;;;7.20;99.90;;;;;;4427638;28;653522;-74
2023/01/05 08:10:27;;;;;;;5.67;2.37;;;7.10;99.90;;;;;;4383351;28;653196;-74
2023/01/05 08:12:09;;;;;;;4.27;2.47;;;7.10;99.90;;;;;;4385256;28;654355;-72
2023/01/05 08:14:56;;;;;;;5.77;2.93;;;7.00;99.90;;;;;;4406760;28;654641;-73
2023/01/05 08:17:43;;;;;;;4.27;2.40;;;7.00;99.90;;;;;;4401364;28;655949;-72
2023/01/05 08:20:31;;;;;;;6.43;2.77;;;6.90;99.90;;;;;;4405801;28;655123;-73
2023/01/05 08:23:18;;;;;;;6.17;2.93;;;6.90;99.90;;;;;;4422830;28;654959;-73
2023/01/05 08:26:08;;;;;;;7.50;2.60;;;6.80;99.90;;;;;;4388888;28;654784;-74
2023/01/05 08:28:55;;;;;;;6.50;2.80;;;6.80;99.90;;;;;;4390876;28;655045;-73
2023/01/05 08:31:42;;;;;;;5.63;2.70;;;6.80;99.90;;;;;;4414314;28;654536;-73
2023/01/05 08:34:30;;;;;;;5.37;2.67;;;6.80;99.90;;;;;;4410985;28;654603;-73
2023/01/05 08:37:18;;;;;;;5.87;2.80;;;6.70;99.90;;;;;;4380264;28;655867;-74
2023/01/05 08:40:07;;;;;;;7.67;3.00;;;6.70;99.90;;;;;;4405597;28;655064;-73
2023/01/05 08:42:57;;;;;;;5.13;2.77;;;6.70;99.90;;;;;;4415113;28;654694;-73
2023/01/05 08:45:48;;;;;;;7.57;3.27;;;6.60;99.90;;;;;;4409961;28;654816;-73
2023/01/05 08:48:35;;;;;;;10.73;3.07;;;6.70;99.90;;;;;;4369945;28;655084;-74
2023/01/05 08:51:22;;;;;;;6.67;2.67;;;6.70;99.90;;;;;;4411981;28;656118;-74
2023/01/05 08:54:10;;;;;;;6.83;3.13;;;6.70;99.90;;;;;;4403428;28;654332;-74
2023/01/05 08:56:57;;;;;;;10.00;3.10;;;6.70;99.90;;;;;;4400249;28;655088;-74
2023/01/05 08:59:47;;;;;;;7.80;3.03;;;6.80;99.90;;;;;;4409796;28;656330;-75
2023/01/05 09:02:34;;;;;;;5.93;2.70;;;6.70;99.90;;;;;;4408145;28;654732;-74
2023/01/05 09:05:21;;;;;;;8.07;3.33;;;6.80;99.90;;;;;;4387439;28;654715;-74
2023/01/05 09:08:08;;;;;;;8.13;2.40;;;6.80;99.90;;;;;;4428564;28;654798;-74
2023/01/05 09:10:55;;;;;;;5.83;2.70;;;6.90;99.90;;;;;;4410161;28;655816;-75
2023/01/05 09:13:45;;;;;;;6.43;2.83;;;6.90;99.90;;;;;;4409026;28;655697;-74
2023/01/05 09:16:34;;;;;;;7.33;3.10;;;7.00;99.90;;;;;;4381442;28;655394;-74
2023/01/05 09:19:22;;;;;;;4.33;2.30;;;7.00;99.90;;;;;;4388491;28;654432;-76
2023/01/05 09:22:09;;;;;;;5.43;2.97;;;7.10;99.90;;;;;;4413746;28;654306;-75
2023/01/05 09:24:56;;;;;;;7.07;3.20;;;7.10;99.90;;;;;;4406755;28;654688;-74
2023/01/05 09:27:43;;;;;;;4.70;2.45;;;7.20;99.90;;;;;;4421448;28;655775;-75
2023/01/05 09:30:30;;;;;;;6.80;2.67;;;7.20;99.90;;;;;;4413328;28;654407;-74
2023/01/05 09:33:19;;;;;;;8.17;3.13;;;7.30;99.90;;;;;;4428789;28;655264;-75
2023/01/05 09:36:07;;;;;;;8.77;2.80;;;7.40;99.90;;;;;;4395378;28;654471;-75
2023/01/05 09:38:55;;;;;;;3.33;1.70;;;7.40;99.90;;;;;;4415847;28;655160;-75
2023/01/05 09:41:44;;;;;;;3.73;1.87;;;7.30;99.90;;;;;;4386021;28;655832;-75
2023/01/05 09:44:34;;;;;;;7.53;2.60;;;7.30;99.90;;;;;;4389776;28;654462;-76
2023/01/05 09:47:25;;;;;;;9.10;2.17;;;7.30;99.90;;;;;;4405198;28;653699;-75
2023/01/05 09:50:18;;;;;;;5.87;2.57;;;7.30;99.90;;;;;;4394505;28;655570;-75
2023/01/05 09:53:07;;;;;;;10.13;2.50;;;7.30;99.90;;;;;;4368070;28;654620;-75
2023/01/05 09:55:54;;;;;;;6.90;2.50;;;7.20;99.90;;;;;;4431665;28;655455;-75
2023/01/05 09:58:41;;;;;;;6.43;2.37;;;7.30;99.90;;;;;;4387895;28;654483;-75
2023/01/05 10:01:29;;;;;;;5.73;2.10;;;7.50;99.90;;;;;;4411923;28;654650;-75
2023/01/05 10:04:17;;;;;;;5.93;1.80;;;7.40;99.90;;;;;;4394136;28;654531;-75
2023/01/05 10:07:08;;;;;;;6.43;2.40;;;7.50;99.90;;;;;;4416024;28;654353;-75
2023/01/05 10:09:56;;;;;;;7.80;2.60;;;7.40;99.90;;;;;;4382365;28;654498;-74
2023/01/05 10:13:02;;;;;;;7.10;3.23;;;7.50;99.90;;;;;;4419822;28;656158;-74
2023/01/05 10:15:50;;;;;;;7.23;3.40;;;7.50;99.90;;;;;;4392952;28;654773;-75
2023/01/05 10:18:37;;;;;;;9.80;3.70;;;7.60;99.90;;;;;;4385568;28;655501;-75
2023/01/05 10:21:30;;;;;;;4.10;2.33;;;7.60;99.90;;;;;;4424628;28;654414;-75
2023/01/05 10:24:27;;;;;;;10.97;3.50;;;7.70;99.90;;;;;;4370011;28;655451;-75
2023/01/05 10:27:16;;;;;;;13.93;3.30;;;7.80;99.90;;;;;;4396396;28;656157;-74
2023/01/05 10:30:10;;;;;;;8.60;3.63;;;7.80;99.90;;;;;;4386383;28;656138;-75
2023/01/05 10:33:00;;;;;;;8.00;3.50;;;7.70;99.90;;;;;;4350199;28;656464;-74
2023/01/05 10:35:53;;;;;;;9.73;2.80;;;7.80;99.90;;;;;;4389736;28;655566;-74
2023/01/05 10:38:47;;;;;;;6.77;2.77;;;7.80;99.90;;;;;;4384571;28;655253;-74
2023/01/05 10:41:42;;;;;;;6.30;2.97;;;7.80;99.90;;;;;;4407681;28;654356;-74
2023/01/05 10:44:39;;;;;;;7.40;2.80;;;7.90;99.90;;;;;;4406478;28;657609;-74
2023/01/05 10:47:27;;;;;;;7.97;2.30;;;8.00;99.90;;;;;;4361001;28;654957;-74
2023/01/05 10:50:34;;;;;;;5.73;2.33;;;8.00;99.90;;;;;;4411194;28;653773;-73
2023/01/05 10:53:24;;;;;;;5.97;2.67;;;8.00;99.90;;;;;;4388519;28;655135;-74
2023/01/05 10:56:13;;;;;;;5.13;2.37;;;8.00;99.90;;;;;;4398955;28;654442;-74
2023/01/05 10:59:08;;;;;;;7.37;1.93;;;7.90;99.90;;;;;;4398347;28;654193;-74
2023/01/05 11:01:56;;;;;;;7.43;2.63;;;8.00;99.90;;;;;;4379271;28;654825;-75
2023/01/05 11:04:46;;;;;;;7.43;2.55;;;8.20;99.90;;;;;;4415186;28;653732;-74
2023/01/05 11:07:45;;;;;;;4.90;2.23;;;8.20;99.90;;;;;;4386447;28;654160;-74
2023/01/05 11:10:34;;;;;;;3.97;2.00;;;8.30;99.90;;;;;;4390178;28;654937;-74
2023/01/05 11:13:28;;;;;;;6.33;2.20;;;8.40;99.90;;;;;;4394707;28;654592;-74
2023/01/05 11:16:19;;;;;;;9.27;2.33;;;8.40;99.90;;;;;;4367073;28;654783;-73
2023/01/05 11:19:06;;;;;;;8.00;2.67;;;8.40;99.90;;;;;;4387982;28;654610;-74
2023/01/05 11:21:54;;;;;;;6.13;2.50;;;8.50;99.90;;;;;;4409975;28;654617;-74
2023/01/05 11:24:41;;;;;;;6.10;2.53;;;8.50;99.90;;;;;;4386404;28;654486;-74
2023/01/05 11:27:28;;;;;;;10.70;2.77;;;8.50;99.90;;;;;;4414284;28;654709;-74
2023/01/05 11:30:20;;;;;;;7.37;2.60;;;8.40;99.90;;;;;;4408472;28;655520;-72
2023/01/05 11:33:14;;;;;;;7.20;3.10;;;8.40;99.90;;;;;;4388152;28;655498;-74
2023/01/05 11:36:01;;;;;;;5.03;2.50;;;8.50;99.90;;;;;;4406362;28;654735;-74
2023/01/05 11:38:51;;;;;;;6.77;2.87;;;8.50;99.90;;;;;;4426009;28;655344;-74
2023/01/05 11:41:38;;;;;;;5.28;1.98;;;8.50;99.90;;;;;;4396929;28;655453;-73
2023/01/05 11:44:25;;;;;;;4.03;2.13;;;8.60;99.90;;;;;;4400963;28;654504;-73
2023/01/05 11:47:19;;;;;;;7.80;2.30;;;8.60;99.90;;;;;;4410039;28;656571;-74
2023/01/05 11:50:16;;;;;;;6.13;2.03;;;8.60;99.90;;;;;;4393569;28;655492;-74
2023/01/05 11:53:03;;;;;;;8.87;2.27;;;8.40;99.90;;;;;;4403436;28;656439;-74
2023/01/05 11:55:59;;;;;;;7.53;2.43;;;8.40;99.90;;;;;;4394895;28;654385;-74
2023/01/05 11:58:47;;;;;;;5.50;2.00;;;8.40;99.90;;;;;;4376246;28;655575;-74
2023/01/05 12:01:55;;;;;;;5.13;1.80;;;8.40;99.90;;;;;;4411926;28;654478;-75
2023/01/05 12:04:57;;;;;;;7.17;2.23;;;8.40;99.90;;;;;;4377050;28;654832;-74
2023/01/05 12:07:48;;;;;;;6.67;1.83;;;8.40;99.90;;;;;;4387454;28;654255;-74
2023/01/05 12:10:42;;;;;;;4.60;2.03;;;8.40;99.90;;;;;;4347759;28;655035;-75
2023/01/05 12:13:45;;;;;;;6.70;2.37;;;8.40;99.90;;;;;;4230188;28;654496;-75
2023/01/05 12:16:39;;;;;;;8.53;2.40;;;8.30;99.90;;;;;;4265765;28;654372;-74
2023/01/05 12:19:54;;;;;;;14.47;3.27;;;8.10;99.90;;;;;;4390442;28;654045;-74
2023/01/05 12:22:56;;;;;;;8.43;2.33;;;8.00;99.90;;;;;;4377467;28;655978;-74
2023/01/05 12:25:49;;;;;;;8.10;3.00;;;8.00;99.90;;;;;;4393853;28;654142;-74
2023/01/05 12:29:00;;;;;;;12.97;4.27;;;7.90;99.90;;;;;;4398674;28;654747;-74
2023/01/05 12:32:01;;;;;;;11.00;4.17;;;7.80;99.90;;;;;;4365809;28;656485;-74
2023/01/05 12:35:17;;;;;;;7.80;2.73;;;7.80;99.90;;;;;;4386865;28;655757;-74
2023/01/05 12:38:15;;;;;;;6.50;2.50;;;7.70;99.90;;;;;;4399882;28;654711;-73
2023/01/05 12:41:40;;;;;;;6.93;2.50;;;7.80;99.90;;;;;;4381121;28;655453;-74
2023/01/05 12:44:41;;;;;;;6.03;2.50;;;7.80;99.90;;;;;;4376415;28;654636;-74
2023/01/05 12:47:35;;;;;;;7.13;3.07;;;7.80;99.90;;;;;;4389245;28;655347;-73
2023/01/05 12:50:26;;;;;;;8.50;2.73;;;7.90;99.90;;;;;;4361521;28;655226;-74
2023/01/05 12:53:19;;;;;;;8.17;2.70;;;7.90;99.90;;;;;;4386101;28;654804;-74
2023/01/05 12:56:12;;;;;;;7.03;2.50;;;8.10;99.90;;;;;;4383466;28;654597;-74
2023/01/05 12:59:07;;;;;;;9.53;2.77;;;8.10;99.90;;;;;;4393120;28;654746;-74
2023/01/05 13:01:59;;;;;;;7.90;1.67;;;8.10;99.90;;;;;;4388292;28;654084;-73
2023/01/05 13:04:48;;;;;;;5.73;1.70;;;8.30;99.90;;;;;;4394719;28;655619;-74
2023/01/05 13:07:38;;;;;;;4.20;1.77;;;8.40;99.90;;;;;;4390534;28;654930;-73
2023/01/05 13:10:29;;;;;;;6.45;2.17;;;8.50;99.90;;;;;;4395131;28;654747;-74
2023/01/05 13:13:17;;;;;;;8.10;2.23;;;8.50;99.90;;;;;;4391129;28;654618;-74
2023/01/05 13:16:05;;;;;;;6.50;2.23;;;8.60;99.90;;;;;;4410841;28;654790;-74
2023/01/05 13:18:55;;;;;;;7.17;2.00;;;8.60;99.90;;;;;;4388562;28;655352;-74
2023/01/05 13:21:44;;;;;;;9.03;2.17;;;8.70;99.90;;;;;;4384312;28;655394;-74
2023/01/05 13:24:32;;;;;;;5.20;1.90;;;8.80;99.90;;;;;;4404114;28;654706;-74
2023/01/05 13:27:21;;;;;;;7.07;2.20;;;8.70;99.90;;;;;;4410825;28;654159;-77
2023/01/05 13:30:09;;;;;;;5.77;1.87;;;8.10;99.90;;;;;;4389585;28;655700;-75
2023/01/05 13:33:12;;;;;;;4.50;1.93;;;7.60;99.90;;;;;;4408393;28;654644;-77
2023/01/05 13:36:06;;;;;;;5.33;1.77;;;7.10;99.90;;;;;;4400730;28;654875;-76
2023/01/05 13:39:14;;;;;;;4.97;1.30;;;6.80;99.90;;;;;;4404388;28;654916;-76
2023/01/05 13:42:34;;;;;;;3.80;1.27;;;6.40;99.90;;;;;;4396327;28;654518;-76
2023/01/05 13:45:49;;;;;;;5.83;1.53;;;6.10;99.90;;;;;;4383502;28;654409;-75
2023/01/05 13:48:48;;;;;;;4.07;1.33;;;6.00;99.90;;;;;;4395858;28;655414;-75
2023/01/05 13:51:50;;;;;;;2.23;1.20;;;5.80;99.90;;;;;;4395882;28;654641;-75
2023/01/05 13:54:40;;;;;;;5.45;1.20;;;5.70;99.90;;;;;;4396841;28;654497;-75
2023/01/05 13:57:28;;;;;;;2.10;1.13;;;5.70;99.90;;;;;;4401624;28;655067;-73
2023/01/05 14:00:21;;;;;;;2.50;0.90;;;5.60;99.90;;;;;;4387424;28;655031;-73
2023/01/05 14:03:21;;;;;;;3.50;1.00;;;5.60;99.90;;;;;;4390192;28;655436;-73
2023/01/05 14:06:16;;;;;;;2.10;0.90;;;5.60;99.90;;;;;;4391054;28;654982;-75
2023/01/05 14:09:05;;;;;;;1.93;0.90;;;5.60;99.90;;;;;;4407977;28;655012;-74
2023/01/05 14:12:27;;;;;;;3.63;1.40;;;5.60;99.90;;;;;;4401952;28;654973;-76
2023/01/05 14:15:36;;;;;;;4.15;1.40;;;5.60;99.90;;;;;;4408078;28;654181;-76
2023/01/05 14:18:50;;;;;;;2.65;1.50;;;5.50;99.90;;;;;;4407116;28;654835;-79
2023/01/05 14:22:21;;;;;;;2.07;1.20;;;5.50;99.90;;;;;;4389306;28;654727;-78
2023/01/05 14:25:51;;;;;;;3.77;1.50;;;5.50;99.90;;;;;;4394457;28;655193;-79
2023/01/05 14:28:43;;;;;;;1.83;1.23;;;5.50;99.90;;;;;;4395056;28;654870;-76
2023/01/05 14:31:36;;;;;;;4.67;1.90;;;5.50;99.90;;;;;;4390989;28;656173;-72
2023/01/05 14:34:25;;;;;;;7.83;2.57;;;5.40;99.90;;;;;;4390155;28;655864;-74
2023/01/05 14:37:20;;;;;;;6.47;3.00;;;5.40;99.90;;;;;;4394185;28;655526;-75
2023/01/05 14:40:15;;;;;;;7.67;3.10;;;5.30;99.90;;;;;;4398578;28;654342;-75
2023/01/05 14:43:04;;;;;;;6.50;2.90;;;5.30;99.90;;;;;;4396618;28;655153;-79
2023/01/05 14:46:01;;;;;;;6.83;2.77;;;5.30;99.90;;;;;;4397091;28;654504;-75
2023/01/05 14:48:58;;;;;;;8.07;3.47;;;5.30;99.90;;;;;;4389655;28;654935;-73
2023/01/05 14:51:53;;;;;;;8.13;3.90;;;5.20;99.90;;;;;;4392951;28;656107;-74
2023/01/05 14:55:19;;;;;;;10.17;4.30;;;5.30;99.90;;;;;;4369596;28;655023;-74
2023/01/05 14:58:10;;;;;;;12.07;5.60;;;5.30;99.90;;;;;;4334549;28;655998;-74
2023/01/05 15:00:58;;;;;;;12.03;6.10;;;5.40;99.90;;;;;;4412588;28;656384;-75
2023/01/05 15:03:48;;;;;;;13.17;6.97;;;5.40;99.90;;;;;;4412535;28;656422;-76
2023/01/05 15:06:42;;;;;;;12.53;6.13;;;5.40;99.90;;;;;;4395666;28;655827;-76
2023/01/05 15:09:42;;;;;;;10.93;5.77;;;5.40;99.90;;;;;;4408665;28;655076;-75
2023/01/05 15:12:58;;;;;;;11.63;5.87;;;5.50;99.90;;;;;;4373518;28;655385;-75
2023/01/05 15:15:47;;;;;;;17.27;7.93;;;5.50;99.90;;;;;;4401808;28;656077;-76
2023/01/05 15:19:03;;;;;;;14.70;7.87;;;5.60;99.90;;;;;;4415778;28;654873;-75
2023/01/05 15:22:05;;;;;;;15.03;7.77;;;5.70;99.90;;;;;;4368878;28;655199;-75
2023/01/05 15:25:20;;;;;;;18.50;7.70;;;5.70;99.90;;;;;;4393746;28;655539;-76